Tilton, South Dakota
Current Conditions -  °F | °C
As of 2:55 AM on Wednesday 26 Nov 2014 (Local Time) from KSPF Reporting Station
Overcast Overcast  
Wind Chill: 16°   Ceiling: 500
Heat Index: 23°   Visibility: 10mi
Dew Point: 23°   Wind: 6mph
Humidity: 100%   Direction: 310°NW
Pressure: 30.16"   Gusts: NA
Location:  44.253°N, 103.912°W
Report Text: KSPF 260955Z AUTO 31005KT 10SM OVC005 M05/M05 A3016 RMK AO2
Loading
Personal Weather Stations






























Interactive Weather Map New forecast layout! Learn more

10-Day Weather Forecast

Advertisements
Track Severe Weather on mobile